Time,TemperatureF,DewpointF,PressureIn,WindDirection,WindDirectionDegrees,WindSpeedMPH,WindSpeedGustMPH,Humidity,HourlyPrecipIn,Conditions,Clouds,dailyrainin,SoftwareType,DateUTC
2013-10-08 00:13:00,56.0,-99.9,-100.00,North,11,0.0,2.0,-999,0.00,,,0.00,,2013-10-08 05:13:00,
2013-10-08 00:23:00,56.0,-99.9,-100.00,North,11,0.0,2.0,-999,0.00,,,0.00,,2013-10-08 05:23:00,
2013-10-08 00:42:00,56.0,-99.9,-100.00,NNE,27,0.0,1.0,-999,0.00,,,0.00,,2013-10-08 05:42:00,
2013-10-08 00:53:00,56.0,-99.9,-100.00,NNE,27,0.0,1.0,-999,0.00,,,0.00,,2013-10-08 05:53:00,
2013-10-08 01:12:00,55.0,-99.9,-100.00,NNE,16,0.0,1.0,-999,0.00,,,-99.99,,2013-10-08 06:12:00,
2013-10-08 01:22:00,55.0,-99.9,-100.00,NNE,16,0.0,1.0,-999,0.00,,,-99.99,,2013-10-08 06:22:00,
2013-10-08 01:42:00,55.0,-99.9,-100.00,NNE,12,0.0,1.0,-999,0.00,,,0.00,,2013-10-08 06:42:00,
2013-10-08 01:52:00,55.0,-99.9,-100.00,NNE,12,0.0,1.0,-999,0.00,,,0.00,,2013-10-08 06:52:00,
2013-10-08 02:12:00,55.0,-99.9,-100.00,NNE,27,0.0,1.0,-999,0.00,,,0.00,,2013-10-08 07:12:00,
2013-10-08 02:22:00,55.0,-99.9,-100.00,NNE,27,0.0,1.0,-999,0.00,,,0.00,,2013-10-08 07:22:00,
2013-10-08 02:42:00,55.0,-99.9,-100.00,ENE,66,0.0,1.0,-999,0.00,,,0.00,,2013-10-08 07:42:00,
2013-10-08 02:52:00,55.0,-99.9,-100.00,ENE,66,0.0,1.0,-999,0.00,,,0.00,,2013-10-08 07:52:00,
2013-10-08 03:12:00,54.0,-99.9,-100.00,NE,44,0.0,0.0,-999,0.00,,,0.00,,2013-10-08 08:12:00,
2013-10-08 03:22:00,54.0,-99.9,-100.00,NE,44,0.0,0.0,-999,0.00,,,0.00,,2013-10-08 08:22:00,
2013-10-08 03:42:00,54.0,-99.9,-100.00,NNE,21,0.0,1.0,-999,0.00,,,0.00,,2013-10-08 08:42:00,
2013-10-08 03:52:00,54.0,-99.9,-100.00,NNE,21,0.0,1.0,-999,0.00,,,0.00,,2013-10-08 08:52:00,
2013-10-08 04:12:00,53.0,-99.9,-100.00,North,11,0.0,1.0,-999,0.00,,,0.00,,2013-10-08 09:12:00,
2013-10-08 04:22:00,53.0,-99.9,-100.00,North,11,0.0,1.0,-999,0.00,,,0.00,,2013-10-08 09:22:00,
2013-10-08 04:43:00,53.0,-99.9,-100.00,NNW,340,0.0,1.0,-999,0.00,,,0.00,,2013-10-08 09:43:00,
2013-10-08 04:53:00,53.0,-99.9,-100.00,NNW,340,0.0,1.0,-999,0.00,,,0.00,,2013-10-08 09:53:00,
2013-10-08 05:13:00,53.0,-99.9,-100.00,WSW,249,1.0,1.0,-999,0.00,,,0.00,,2013-10-08 10:13:00,
2013-10-08 05:23:00,53.0,-99.9,-100.00,WSW,249,1.0,1.0,-999,0.00,,,0.00,,2013-10-08 10:23:00,
2013-10-08 05:42:00,52.0,-99.9,-100.00,North,349,0.0,0.0,-999,0.00,,,0.00,,2013-10-08 10:42:00,
2013-10-08 05:53:00,52.0,-99.9,-100.00,North,349,0.0,0.0,-999,0.00,,,0.00,,2013-10-08 10:53:00,
2013-10-08 06:12:00,52.0,-99.9,-100.00,NE,42,0.0,0.0,-999,0.00,,,0.00,,2013-10-08 11:12:00,
2013-10-08 06:22:00,52.0,-99.9,-100.00,NE,42,0.0,0.0,-999,0.00,,,0.00,,2013-10-08 11:22:00,
2013-10-08 06:42:00,52.0,-99.9,-100.00,SSW,211,1.0,2.0,-999,0.00,,,0.00,,2013-10-08 11:42:00,
2013-10-08 06:52:00,52.0,-99.9,-100.00,SSW,211,1.0,2.0,-999,0.00,,,0.00,,2013-10-08 11:52:00,
2013-10-08 07:12:00,52.0,-99.9,-100.00,South,186,1.0,2.0,-999,0.00,,,0.00,,2013-10-08 12:12:00,
2013-10-08 07:22:00,52.0,-99.9,-100.00,South,186,1.0,2.0,-999,0.00,,,0.00,,2013-10-08 12:22:00,
2013-10-08 07:42:00,52.0,-99.9,-100.00,SSE,167,2.0,3.0,-999,0.00,,,0.00,,2013-10-08 12:42:00,
2013-10-08 07:52:00,52.0,-99.9,-100.00,SSE,167,2.0,3.0,-999,0.00,,,0.00,,2013-10-08 12:52:00,
2013-10-08 08:12:00,53.0,-99.9,-100.00,South,181,1.0,3.0,-999,0.00,,,0.00,,2013-10-08 13:12:00,
2013-10-08 08:22:00,53.0,-99.9,-100.00,South,181,1.0,3.0,-999,0.00,,,0.00,,2013-10-08 13:22:00,
2013-10-08 08:30:00,55.0,-99.9,-100.00,SW,214,3.0,5.0,-999,0.00,,,0.00,,2013-10-08 13:30:00,
2013-10-08 08:52:00,54.0,-99.9,-100.00,South,179,1.0,3.0,-999,0.00,,,0.00,,2013-10-08 13:52:00,
2013-10-08 09:22:00,55.0,-99.9,-100.00,SW,214,3.0,5.0,-999,0.00,,,0.00,,2013-10-08 14:22:00,
2013-10-08 10:11:00,59.0,-99.9,-100.00,SW,221,4.0,5.0,-999,0.00,,,0.00,,2013-10-08 15:11:00,
2013-10-08 10:22:00,59.0,-99.9,-100.00,SW,221,4.0,5.0,-999,0.00,,,0.00,,2013-10-08 15:22:00,
2013-10-08 10:44:00,61.0,-99.9,-100.00,SW,224,3.0,5.0,-999,0.00,,,0.00,,2013-10-08 15:44:00,
2013-10-08 10:53:00,61.0,-99.9,-100.00,SW,224,3.0,5.0,-999,0.00,,,0.00,,2013-10-08 15:53:00,
2013-10-08 11:13:00,63.0,-99.9,-100.00,SW,225,5.0,7.0,-999,0.00,,,0.00,,2013-10-08 16:13:00,
2013-10-08 11:23:00,63.0,-99.9,-100.00,SW,225,5.0,7.0,-999,0.00,,,0.00,,2013-10-08 16:23:00,
2013-10-08 11:43:00,65.0,-99.9,-100.00,SW,230,4.0,5.0,-999,0.00,,,0.00,,2013-10-08 16:43:00,
2013-10-08 12:12:00,67.0,-99.9,-100.00,SW,226,4.0,5.0,-999,0.00,,,0.00,,2013-10-08 17:12:00,
2013-10-08 12:23:00,67.0,-99.9,-100.00,SW,226,4.0,5.0,-999,0.00,,,0.00,,2013-10-08 17:23:00,
2013-10-08 12:43:00,69.0,-99.9,-100.00,SW,216,4.0,8.0,-999,0.00,,,0.00,,2013-10-08 17:43:00,
2013-10-08 12:52:00,69.0,-99.9,-100.00,SW,216,4.0,8.0,-999,0.00,,,0.00,,2013-10-08 17:52:00,
2013-10-08 13:11:00,72.0,-99.9,-100.00,South,190,6.0,9.0,-999,0.00,,,0.00,,2013-10-08 18:11:00,
2013-10-08 13:22:00,72.0,-99.9,-100.00,South,190,6.0,9.0,-999,0.00,,,0.00,,2013-10-08 18:22:00,
2013-10-08 13:42:00,73.0,-99.9,-100.00,South,191,8.0,13.0,-999,0.00,,,0.00,,2013-10-08 18:42:00,
2013-10-08 13:53:00,73.0,-99.9,-100.00,South,191,8.0,13.0,-999,0.00,,,0.00,,2013-10-08 18:53:00,
2013-10-08 14:11:00,72.0,-99.9,-100.00,SSW,209,6.0,11.0,-999,0.00,,,0.00,,2013-10-08 19:11:00,
2013-10-08 14:22:00,72.0,-99.9,-100.00,SSW,209,6.0,11.0,-999,0.00,,,0.00,,2013-10-08 19:22:00,
2013-10-08 14:43:00,74.0,-99.9,-100.00,SSW,201,5.0,8.0,-999,0.00,,,0.00,,2013-10-08 19:43:00,
2013-10-08 14:53:00,74.0,-99.9,-100.00,SSW,201,5.0,8.0,-999,0.00,,,0.00,,2013-10-08 19:53:00,
2013-10-08 15:12:00,75.0,-99.9,-100.00,SSW,205,7.0,11.0,-999,0.00,,,0.00,,2013-10-08 20:12:00,
2013-10-08 15:22:00,75.0,-99.9,-100.00,SSW,205,7.0,11.0,-999,0.00,,,0.00,,2013-10-08 20:22:00,
2013-10-08 15:42:00,76.0,-99.9,-100.00,South,185,5.0,8.0,-999,0.00,,,0.00,,2013-10-08 20:42:00,
2013-10-08 15:52:00,76.0,-99.9,-100.00,South,185,5.0,8.0,-999,0.00,,,0.00,,2013-10-08 20:52:00,
2013-10-08 16:12:00,76.0,-99.9,-100.00,SSW,196,6.0,11.0,-999,0.00,,,0.00,,2013-10-08 21:12:00,
2013-10-08 16:22:00,76.0,-99.9,-100.00,SSW,196,6.0,11.0,-999,0.00,,,0.00,,2013-10-08 21:22:00,
2013-10-08 16:44:00,76.0,-99.9,-100.00,SSW,195,5.0,12.0,-999,0.00,,,0.00,,2013-10-08 21:44:00,
2013-10-08 16:54:00,76.0,-99.9,-100.00,SSW,195,5.0,12.0,-999,0.00,,,0.00,,2013-10-08 21:54:00,
2013-10-08 17:00:00,76.0,-99.9,-100.00,South,182,4.0,7.0,-999,0.00,,,0.00,,2013-10-08 22:00:00,
2013-10-08 17:13:00,76.0,-99.9,-100.00,South,173,7.0,11.0,-999,0.00,,,0.00,,2013-10-08 22:13:00,
2013-10-08 17:24:00,76.0,-99.9,-100.00,South,173,7.0,11.0,-999,0.00,,,0.00,,2013-10-08 22:24:00,
2013-10-08 17:50:00,76.0,-99.9,-100.00,South,182,4.0,7.0,-999,0.00,,,0.00,,2013-10-08 22:50:00,
2013-10-08 18:12:00,75.0,-99.9,-100.00,SE,146,5.0,8.0,-999,0.00,,,0.00,,2013-10-08 23:12:00,
2013-10-08 18:23:00,75.0,-99.9,-100.00,SE,146,5.0,8.0,-999,0.00,,,0.00,,2013-10-08 23:23:00,
2013-10-08 18:42:00,74.0,-99.9,-100.00,SSE,147,7.0,9.0,-999,0.00,,,0.00,,2013-10-08 23:42:00,
2013-10-08 19:12:00,72.0,-99.9,-100.00,SSE,155,5.0,7.0,-999,0.00,,,0.00,,2013-10-09 00:12:00,
2013-10-08 19:22:00,72.0,-99.9,-100.00,SSE,155,5.0,7.0,-999,0.00,,,0.00,,2013-10-09 00:22:00,
2013-10-08 19:30:00,68.0,-99.9,-100.00,SSE,150,3.0,5.0,-999,0.00,,,0.00,,2013-10-09 00:30:00,
2013-10-08 19:43:00,69.0,-99.9,-100.00,SE,145,4.0,6.0,-999,0.00,,,0.00,,2013-10-09 00:43:00,
2013-10-08 19:52:00,69.0,-99.9,-100.00,SE,145,4.0,6.0,-999,0.00,,,0.00,,2013-10-09 00:52:00,
2013-10-08 20:12:00,68.0,-99.9,-100.00,SSE,150,3.0,5.0,-999,0.00,,,0.00,,2013-10-09 01:12:00,
2013-10-08 20:22:00,68.0,-99.9,-100.00,SSE,150,3.0,5.0,-999,0.00,,,0.00,,2013-10-09 01:22:00,
2013-10-08 21:13:00,66.0,-99.9,-100.00,SE,140,8.0,9.0,-999,0.00,,,0.00,,2013-10-09 02:13:00,
2013-10-08 21:23:00,66.0,-99.9,-100.00,SE,140,8.0,9.0,-999,0.00,,,0.00,,2013-10-09 02:23:00,
2013-10-08 21:42:00,65.0,-99.9,-100.00,SE,146,5.0,7.0,-999,0.00,,,0.00,,2013-10-09 02:42:00,
2013-10-08 21:52:00,65.0,-99.9,-100.00,SE,146,5.0,7.0,-999,0.00,,,0.00,,2013-10-09 02:52:00,
2013-10-08 22:12:00,64.0,-99.9,-100.00,SSE,154,5.0,7.0,-999,0.00,,,0.00,,2013-10-09 03:12:00,
2013-10-08 22:23:00,64.0,-99.9,-100.00,SSE,154,5.0,7.0,-999,0.00,,,0.00,,2013-10-09 03:23:00,
2013-10-08 22:45:00,65.0,-99.9,-100.00,SSE,156,6.0,9.0,-999,0.00,,,0.00,,2013-10-09 03:45:00,
2013-10-08 22:54:00,65.0,-99.9,-100.00,SSE,156,6.0,9.0,-999,0.00,,,0.00,,2013-10-09 03:54:00,
2013-10-08 23:00:00,64.0,-99.9,-100.00,SSE,161,7.0,10.0,-999,0.00,,,0.00,,2013-10-09 04:00:00,
2013-10-08 23:14:00,64.0,-99.9,-100.00,SSE,151,6.0,8.0,-999,0.00,,,0.00,,2013-10-09 04:14:00,
2013-10-08 23:24:00,64.0,-99.9,-100.00,SSE,151,6.0,8.0,-999,0.00,,,0.00,,2013-10-09 04:24:00,
2013-10-08 23:44:00,64.0,-99.9,-100.00,SSE,161,7.0,10.0,-999,0.00,,,0.00,,2013-10-09 04:44:00,
2013-10-08 23:54:00,64.0,-99.9,-100.00,SSE,161,7.0,10.0,-999,0.00,,,0.00,,2013-10-09 04:54:00,